Flight Track Log - Related Links

Times and Time Zones

All times are in EDT time to prevent confusion due to time zone crossing. See the AAY892 flight status page for this flight to view local times or setup timezone preferences in your user account.

Time Position Orientation Groundspeed Altitude Reporting Facility
EDT Latitude Longitude Course Direction KTS MPH feet Rate Location/Type
Thu 07:09:57 AM 27.9333 -82.7000 30° Northeast 168 193 900  Level Tampa TRACON
Thu 07:11:09 AM 27.9833 -82.6667 30° Northeast 227 261 2,500 1,667 Climbing Tampa TRACON
Thu 07:12:21 AM 28.0667 -82.6500 10° North 269 310 4,900 2,102 Climbing Tampa TRACON
Thu 07:14:26 AM 28.2311 -82.6500 360° North 292 336 9,400 1,946 Climbing Jacksonville Center
Thu 07:15:26 AM 28.3167 -82.6475 North 292 336 10,900 1,300 Climbing Jacksonville Center
Thu 07:16:26 AM 28.4189 -82.6425 North 321 369 12,000 1,650 Climbing Jacksonville Center
Thu 07:17:26 AM 28.5317 -82.6375 North 365 420 14,200 2,250 Climbing Jacksonville Center
Thu 07:18:26 AM 28.6464 -82.6300 North 392 451 16,500 2,050 Climbing Jacksonville Center
Thu 07:19:26 AM 28.7592 -82.6272 North 404 465 18,300 1,800 Climbing Jacksonville Center
Thu 07:20:26 AM 28.8758 -82.6222 North 414 476 20,100 1,700 Climbing Jacksonville Center
Thu 07:21:26 AM 28.9992 -82.6147 North 426 490 21,700 1,450 Climbing Jacksonville Center
Thu 07:22:26 AM 29.1242 -82.6119 North 438 504 23,000 1,700 Climbing Jacksonville Center
Thu 07:23:26 AM 29.2475 -82.6069 North 443 510 25,100 1,900 Climbing Jacksonville Center
Thu 07:24:26 AM 29.3664 -82.5994 North 438 504 26,800 1,500 Climbing Jacksonville Center
Thu 07:25:26 AM 29.4875 -82.5944 North 433 498 28,100 1,250 Climbing Jacksonville Center
Thu 07:26:26 AM 29.6064 -82.5892 North 433 498 29,300 1,250 Climbing Jacksonville Center
Thu 07:27:26 AM 29.7297 -82.5864 North 433 498 30,600 850 Climbing Jacksonville Center
Thu 07:28:26 AM 29.8464 -82.5814 North 427 491 31,000 200 Climbing Jacksonville Center
Thu 07:29:26 AM 29.9656 -82.5761 North 422 486 31,000  Level Jacksonville Center
Thu 07:30:26 AM 30.0844 -82.5733 North 422 486 31,000  Level Jacksonville Center
Thu 07:31:26 AM 30.2014 -82.5706 North 422 486 31,000  Level Jacksonville Center
Thu 07:32:26 AM 30.3183 -82.5628 North 422 486 31,000  Level Jacksonville Center
Thu 07:33:26 AM 30.4372 -82.5578 North 422 486 31,000  Level Jacksonville Center
Thu 07:34:26 AM 30.5625 -82.5525 North 417 480 31,000  Level Jacksonville Center
Thu 07:35:26 AM 30.6794 -82.5494 North 417 480 31,000  Level Jacksonville Center
Thu 07:36:26 AM 30.7983 -82.5444 North 422 486 31,000  Level Jacksonville Center
Thu 07:37:26 AM 30.9153 -82.5389 North 417 480 31,000  Level Jacksonville Center
Thu 07:38:26 AM 31.0322 -82.5339 North 417 480 31,000  Level Jacksonville Center
Thu 07:39:26 AM 31.1492 -82.5283 North 417 480 31,000  Level Jacksonville Center
Thu 07:40:26 AM 31.2661 -82.5208 North 417 480 31,000  Level Jacksonville Center
Thu 07:41:26 AM 31.3725 -82.5153 North 422 486 31,000  Level Jacksonville Center
Thu 07:43:46 AM 31.6431 -82.4922 North 421 484 31,000  Level Atlanta Center
Thu 07:44:46 AM 31.7575 -82.4756 North 421 484 31,000  Level Atlanta Center
Thu 07:45:46 AM 31.8764 -82.4564 North 427 491 31,000  Level Atlanta Center
Thu 07:46:46 AM 31.9931 -82.4397 North 421 484 31,000  Level Atlanta Center
Thu 07:47:46 AM 32.1033 -82.4206 North 415 478 31,000  Level Atlanta Center
Thu 07:48:46 AM 32.2200 -82.4014 North 415 478 31,000  Level Atlanta Center
Thu 07:49:46 AM 32.3344 -82.3794 North 415 478 31,000  Level Atlanta Center
Thu 07:50:46 AM 32.4492 -82.3650 North 410 472 31,000  Level Atlanta Center
Thu 07:51:46 AM 32.5617 -82.3481 North 410 472 31,000  Level Atlanta Center
Thu 07:52:46 AM 32.6761 -82.3286 North 410 472 31,000 500 Level Atlanta Center
Thu 07:53:46 AM 32.7886 -82.3117 North 410 472 32,000 950 Climbing Atlanta Center
Thu 07:54:46 AM 32.8989 -82.2922 North 410 472 32,900 500 Climbing Atlanta Center
Thu 07:55:46 AM 33.0239 -82.2725 North 405 466 33,000 50 Climbing Atlanta Center
Thu 07:56:46 AM 33.1342 -82.2553 North 405 466 33,000  Level Atlanta Center
Thu 07:57:46 AM 33.2447 -82.2381 North 405 466 33,000  Level Atlanta Center
Thu 07:58:46 AM 33.3569 -82.2183 North 405 466 33,000  Level Atlanta Center
Thu 07:59:46 AM 33.4694 -82.2011 North 405 466 33,000  Level Atlanta Center
Thu 08:00:46 AM 33.5778 -82.1811 North 405 466 33,000  Level Atlanta Center
Thu 08:01:46 AM 33.6903 -82.1639 North 405 466 33,000  Level Atlanta Center
Thu 08:02:46 AM 33.8025 -82.1439 North 405 466 33,000  Level Atlanta Center
Thu 08:03:46 AM 33.9150 -82.1239 North 405 466 33,000  Level Atlanta Center
Thu 08:04:46 AM 34.0150 -82.1092 North 405 466 33,000  Level Atlanta Center
Thu 08:05:46 AM 34.1253 -82.0889 North 405 466 33,000  Level Atlanta Center
Thu 08:06:46 AM 34.2397 -82.0714 North 410 472 33,000  Level Atlanta Center
Thu 08:07:46 AM 34.3500 -82.0486 10° North 404 465 33,000  Level Atlanta Center
Thu 08:08:46 AM 34.4578 -82.0033 19° North 404 465 33,000  Level Atlanta Center
Thu 08:09:46 AM 34.5653 -81.9503 22° Northeast 409 471 33,000  Level Atlanta Center
Thu 08:10:46 AM 34.6856 -81.8992 19° North 409 471 33,000  Level Atlanta Center
Thu 08:11:46 AM 34.7889 -81.8486 22° Northeast 409 471 33,000  Level Atlanta Center
Thu 08:12:46 AM 34.8986 -81.7975 21° North 409 471 33,000  Level Atlanta Center
Thu 08:13:46 AM 35.0061 -81.7439 22° Northeast 409 471 33,000  Level Atlanta Center
Thu 08:14:46 AM 35.1136 -81.6928 21° North 409 471 33,000  Level Atlanta Center
Thu 08:15:46 AM 35.2211 -81.6386 22° Northeast 409 471 33,000  Level Atlanta Center
Thu 08:16:46 AM 35.3286 -81.5872 21° North 409 471 33,000  Level Atlanta Center
Thu 08:17:46 AM 35.4258 -81.5436 20° North 409 471 33,000  Level Atlanta Center
Thu 08:18:46 AM 35.5333 -81.4892 22° Northeast 409 471 33,000  Level Atlanta Center
Thu 08:19:46 AM 35.6406 -81.4400 20° North 409 471 33,000  Level Atlanta Center
Thu 08:20:46 AM 35.7603 -81.3797 22° Northeast 409 471 33,000  Level Atlanta Center
Thu 08:21:46 AM 35.8678 -81.3250 22° Northeast 409 471 33,000  Level Atlanta Center
Thu 08:22:46 AM 35.9728 -81.2728 22° Northeast 409 471 33,000  Level Atlanta Center
Thu 08:23:46 AM 36.0781 -81.2178 23° Northeast 414 476 33,000  Level Atlanta Center
Thu 08:24:46 AM 36.1853 -81.1653 22° Northeast 409 471 33,000  Level Atlanta Center
Thu 08:25:46 AM 36.2883 -81.1125 22° Northeast 409 471 33,000  Level Atlanta Center
Thu 08:26:46 AM 36.3853 -81.0653 21° North 409 471 33,000  Level Atlanta Center
Thu 08:27:46 AM 36.4922 -81.0122 22° Northeast 409 471 33,000  Level Atlanta Center
Thu 08:28:46 AM 36.5975 -80.9617 21° North 409 471 33,000  Level Atlanta Center
Thu 08:29:46 AM 36.7044 -80.9031 24° Northeast 409 471 33,000  Level Atlanta Center
Thu 08:31:54 AM 36.9317 -80.7939 21° North 414 476 33,000  Level Washington Center
Thu 08:32:54 AM 37.0406 -80.7389 22° Northeast 414 476 33,000  Level Washington Center
Thu 08:33:55 AM 37.1617 -80.6897 18° North 414 476 33,000  Level Washington Center
Thu 08:34:54 AM 37.2717 -80.6553 14° North 409 471 33,000  Level Washington Center
Thu 08:35:55 AM 37.3794 -80.6181 15° North 404 465 33,000  Level Washington Center
Thu 08:36:53 AM 37.4917 -80.5833 14° North 404 465 33,000  Level Washington Center
Thu 08:37:55 AM 37.6017 -80.5461 15° North 404 465 33,000  Level Washington Center
Thu 08:38:53 AM 37.7011 -80.5133 15° North 404 465 33,000  Level Washington Center
Thu 08:39:54 AM 37.8111 -80.4758 15° North 404 465 33,000  Level Washington Center
Thu 08:40:55 AM 37.9231 -80.4358 16° North 404 465 33,000  Level Washington Center
Thu 08:41:52 AM 38.0331 -80.4006 14° North 404 465 33,000  Level Washington Center
Thu 08:42:53 AM 38.1431 -80.3628 15° North 404 465 33,000  Level Washington Center
Thu 08:43:53 AM 38.2678 -80.3206 15° North 404 465 33,000  Level Washington Center
Thu 08:44:55 AM 38.3778 -80.2797 16° North 404 465 33,000  Level Washington Center
Thu 08:46:57 AM 38.6014 -80.1981 16° North 419 482 33,000  Level Cleveland Center
Thu 08:47:58 AM 38.7117 -80.1603 15° North 413 475 33,000  Level Cleveland Center
Thu 08:48:57 AM 38.8197 -80.1222 15° North 408 470 33,000  Level Cleveland Center
Thu 08:49:57 AM 38.9322 -80.0869 14° North 403 464 33,000  Level Cleveland Center
Thu 08:50:57 AM 39.0428 -80.0914 358° North 403 464 33,000  Level Cleveland Center
Thu 08:51:57 AM 39.1553 -80.0986 357° North 403 464 33,000 -198 Level Cleveland Center
Thu 08:52:58 AM 39.2678 -80.1086 356° North 403 464 32,600 -550 Descending Cleveland Center
Thu 08:53:57 AM 39.3806 -80.1158 357° North 403 464 31,900 -756 Descending Cleveland Center
Thu 08:54:57 AM 39.4931 -80.1231 357° North 403 464 31,100 -800 Descending Cleveland Center
Thu 08:55:57 AM 39.6036 -80.1303 357° North 403 464 30,300 -800 Descending Cleveland Center
Thu 08:56:57 AM 39.7161 -80.1378 357° North 403 464 29,500 -1,000 Descending Cleveland Center
Thu 08:57:57 AM 39.8286 -80.1453 357° North 403 464 28,300 -1,835 Descending Cleveland Center
Thu 08:58:58 AM 39.9456 -80.1525 357° North 408 470 25,800 -2,600 Descending Cleveland Center
Thu 08:59:57 AM 40.0622 -80.1600 357° North 413 475 23,100 -2,773 Descending Cleveland Center
Thu 09:00:57 AM 40.1789 -80.1672 357° North 413 475 20,300 -2,628 Descending Cleveland Center
Thu 09:01:58 AM 40.2917 -80.1747 357° North 413 475 17,800 -2,479 Descending Cleveland Center
Thu 09:02:58 AM 40.4042 -80.1933 353° North 401 461 15,300 -1,412 Descending Cleveland Center
Thu 09:03:57 AM 40.5022 -80.2364 342° North 374 430 15,000 -1,050 Descending Cleveland Center
Thu 09:04:58 AM 40.5922 -80.2906 335° Northwest 363 418 13,200 -1,900 Descending Cleveland Center
Thu 09:05:57 AM 40.6756 -80.3422 335° Northwest 339 390 11,200 -1,563 Descending Cleveland Center
Thu 09:06:57 AM 40.7467 -80.3831 336° Northwest 326 375 10,100 -1,050 Descending Cleveland Center
Thu 09:07:57 AM 40.8133 -80.4214 336° Northwest 286 329 9,100 -550 Descending Cleveland Center
Thu 09:08:57 AM 40.8883 -80.4622 338° Northwest 267 307 9,000 -700 Descending Cleveland Center
Thu 09:09:57 AM 40.9531 -80.5006 336° Northwest 256 295 7,700 -1,488 Descending Cleveland Center
Thu 09:10:58 AM 41.0219 -80.5308 342° North 256 295 6,000 -1,800 Descending Cleveland Center
Thu 09:11:57 AM 41.0886 -80.5197 North 243 280 4,100 -1,513 Descending Cleveland Center
Thu 09:12:57 AM 41.1492 -80.5336 350° North 243 280 3,000 -545 Descending Cleveland Center
Thu 09:13:58 AM 41.1886 -80.5858 315° West 206 237 3,000 -450 Level Cleveland Center
Thu 09:14:57 AM 41.2261 -80.6328 317° Northwest 181 208 2,100 -857 Descending Cleveland Center
Thu 09:15:57 AM 41.2553 -80.6717 315° West 159 183 1,300 -800 Descending Cleveland Center
Thu 09:17:00 AM 41.2500 -80.6667 North  Level FlightAware Approximate
Thu 09:24:00 AM 41.2616 -80.6804 North  Level Estimated
Thu 09:25:00 AM 41.2616 -80.6804 North  Level Estimated

Login

Don't have an account? Register now (free) for customized features, flight alerts, and more!